Elizabeth Ann — WCZ5348 — position and weather

sailwx.info

Track history (hours):
 
Tides and Currents Weather Stations Pressure Air Temp Water Temp Dewpoint Dewpoint Depression Visibility Wind Speed Wind Dir Waves Ship Positions

Elizabeth Ann

Owner: ATLANTIC GULF TOWING LLC, Chesapeake, VA. More information available from US FCC via Universal Licensing System and Coast Guard Vessel Documentation Center.

Last reported at 2018-Feb-19 23:30 UTC. Time now 2018-Feb-19 23:40 UTC.
Position N 39°50' W 075°23'.

Length 32 m; draft 4 m.

Type: Tug. MMSI: 366773150.

Date/timePositionNaut miles runAvg speedWind from/ knotsBaromVisibWave heightAir tempDewpointWater temp
2018-Feb-19 23:30N 39°50' W 075°23'1 1.7
2018-Feb-19 23:00N 39°49' W 075°24'1 1.7
2018-Feb-19 22:30N 39°50' W 075°23'0 0.0
2018-Feb-19 22:01N 39°50' W 075°23'0 0.0
2018-Feb-19 21:31N 39°50' W 075°23'3 5.2
2018-Feb-19 21:00N 39°48' W 075°26'510.0
2018-Feb-19 20:30N 39°44' W 075°30'510.4
2018-Feb-19 20:00N 39°39' W 075°33'5 9.1
2018-Feb-19 19:30N 39°35' W 075°33'4 7.7
2018-Feb-19 19:00N 39°31' W 075°33'4 7.7
2018-Feb-19 18:30N 39°27' W 075°33'1 2.9
2018-Feb-19 18:00N 39°26' W 075°32'2 3.1
2018-Feb-19 17:31N 39°27' W 075°33'1 2.5
2018-Feb-19 17:00N 39°28' W 075°34'1 1.9
2018-Feb-19 16:30N 39°29' W 075°34'2 3.3
2018-Feb-19 16:00N 39°31' W 075°33'2 3.9
2018-Feb-19 15:31N 39°33' W 075°33'2 3.6
2018-Feb-19 15:01N 39°34' W 075°33'2 4.1
2018-Feb-19 14:30N 39°36' W 075°34'2 4.0
2018-Feb-19 14:01N 39°38' W 075°34'2 4.8
2018-Feb-19 13:31N 39°40' W 075°32'2 4.9
2018-Feb-19 13:01N 39°42' W 075°31'2 4.9
2018-Feb-19 12:31N 39°45' W 075°30'2 4.5
2018-Feb-19 12:01N 39°46' W 075°28'1 2.3
2018-Feb-19 11:30N 39°47' W 075°27'0 0.0
2018-Feb-19 11:00N 39°47' W 075°27'0 0.0
2018-Feb-19 10:31N 39°47' W 075°27'0 0.0
2018-Feb-19 10:01N 39°47' W 075°27'0 0.0
2018-Feb-19 09:30N 39°47' W 075°27'0 0.0
2018-Feb-19 09:00N 39°47' W 075°27'1 2.3
2018-Feb-19 08:30N 39°48' W 075°26'2 4.8
2018-Feb-19 08:00N 39°49' W 075°23'0 0.8
2018-Feb-19 07:30N 39°49' W 075°23'2 3.4
2018-Feb-19 07:00N 39°48' W 075°25'2 4.4
2018-Feb-19 06:31N 39°47' W 075°27'0 0.0
2018-Feb-19 06:00N 39°47' W 075°27'0 0.0
2018-Feb-19 05:30N 39°47' W 075°27'0 0.0
2018-Feb-19 05:00N 39°47' W 075°27'0 0.0
2018-Feb-19 04:30N 39°47' W 075°27'0 0.0
2018-Feb-19 04:01N 39°47' W 075°27'0 0.0
2018-Feb-19 03:30N 39°47' W 075°27'0 0.0
2018-Feb-19 03:00N 39°47' W 075°27'0 0.0
2018-Feb-19 02:30N 39°47' W 075°27'0 0.0
2018-Feb-19 02:00N 39°47' W 075°27'0 0.0
2018-Feb-19 01:30N 39°47' W 075°27'0 0.0
2018-Feb-19 01:00N 39°47' W 075°27'0 0.0
2018-Feb-19 00:31N 39°47' W 075°27'0 0.0
2018-Feb-19 00:00N 39°47' W 075°27'0 0.0
2018-Feb-18 23:30N 39°47' W 075°27'0 0.0
2018-Feb-18 23:00N 39°47' W 075°27'0 0.0
2018-Feb-18 22:30N 39°47' W 075°27'0 0.0
2018-Feb-18 22:00N 39°47' W 075°27'0 0.0
2018-Feb-18 21:30N 39°47' W 075°27'0 0.0
2018-Feb-18 21:00N 39°47' W 075°27'0 0.0
2018-Feb-18 20:30N 39°47' W 075°27'0 0.0
2018-Feb-18 20:00N 39°47' W 075°27'0 0.0
2018-Feb-18 19:30N 39°47' W 075°27'0 0.0
2018-Feb-18 19:00N 39°47' W 075°27'0 0.0
2018-Feb-18 18:30N 39°47' W 075°27'0 0.0
2018-Feb-18 18:00N 39°47' W 075°27'0 0.0
2018-Feb-18 17:30N 39°47' W 075°27'0 0.0
2018-Feb-18 17:01N 39°47' W 075°27'0 0.0
2018-Feb-18 16:31N 39°47' W 075°27'0 0.0
2018-Feb-18 16:00N 39°47' W 075°27'0 0.0
2018-Feb-18 15:30N 39°47' W 075°27'0 0.0
2018-Feb-18 15:01N 39°47' W 075°27'0 0.5
2018-Feb-18 14:30N 39°47' W 075°26'4 7.1
2018-Feb-18 14:00N 39°50' W 075°23'3 5.5
2018-Feb-18 13:30N 39°48' W 075°26'1 2.2
2018-Feb-18 13:01N 39°47' W 075°27'0 0.0
2018-Feb-18 12:30N 39°47' W 075°27'0 0.0
2018-Feb-18 12:00N 39°47' W 075°27'0 0.0
2018-Feb-18 11:30N 39°47' W 075°27'0 0.0
2018-Feb-18 11:00N 39°47' W 075°27'0 0.0
2018-Feb-18 10:31N 39°47' W 075°27'0 0.0
2018-Feb-18 10:01N 39°47' W 075°27'0 0.0
2018-Feb-18 09:31N 39°47' W 075°27'0 0.0
2018-Feb-18 09:01N 39°47' W 075°27'0 0.0
2018-Feb-18 08:31N 39°47' W 075°27'0 0.0
2018-Feb-18 08:00N 39°47' W 075°27'0 0.0
2018-Feb-18 07:30N 39°47' W 075°27'0 0.0
2018-Feb-18 07:01N 39°47' W 075°27'0 0.0
2018-Feb-18 06:30N 39°47' W 075°27'0 0.0
2018-Feb-18 06:01N 39°47' W 075°27'0 0.0
2018-Feb-18 05:30N 39°47' W 075°27'0 0.0
2018-Feb-18 05:00N 39°47' W 075°27'0 0.0
2018-Feb-18 04:30N 39°47' W 075°27'0 0.0
2018-Feb-18 04:00N 39°47' W 075°27'0 0.0
2018-Feb-18 03:30N 39°47' W 075°27'0 0.0
2018-Feb-18 03:01N 39°47' W 075°27'0 0.0
2018-Feb-18 02:30N 39°47' W 075°27'0 0.0
2018-Feb-18 02:00N 39°47' W 075°27'0 0.0
2018-Feb-18 01:30N 39°47' W 075°27'0 0.0
2018-Feb-18 01:00N 39°47' W 075°27'0 0.0
2018-Feb-18 00:30N 39°47' W 075°27'0 0.0
2018-Feb-18 00:00N 39°47' W 075°27'0 0.0
2018-Feb-17 23:30N 39°47' W 075°27'0 0.0
2018-Feb-17 23:00N 39°47' W 075°27'0 0.0
2018-Feb-17 22:30N 39°47' W 075°27'1 1.7
2018-Feb-17 22:00N 39°47' W 075°28'3 6.6
2018-Feb-17 21:30N 39°44' W 075°30'3 6.7
2018-Feb-17 21:00N 39°41' W 075°31'3 7.0
2018-Feb-17 20:30N 39°38' W 075°34'3 6.4
2018-Feb-17 20:00N 39°35' W 075°33'2 4.9
2018-Feb-17 19:30N 39°33' W 075°36'3 6.1
2018-Feb-17 19:00N 39°33' W 075°40'3 5.9
2018-Feb-17 18:30N 39°33' W 075°44'3 5.9
2018-Feb-17 18:00N 39°32' W 075°47'3 5.9
2018-Feb-17 17:31N 39°32' W 075°51'4 7.3
2018-Feb-17 17:00N 39°30' W 075°55'4 8.5
2018-Feb-17 16:30N 39°27' W 075°59'4 8.9
2018-Feb-17 16:00N 39°24' W 076°03'5 9.1
2018-Feb-17 15:30N 39°22' W 076°08'17 8.4
2018-Feb-17 13:29N 39°07' W 076°18'4 8.6
2018-Feb-17 12:59N 39°03' W 076°21'4 8.9
2018-Feb-17 12:30N 38°59' W 076°23'4 8.6
2018-Feb-17 12:00N 38°55' W 076°25'4 8.7
2018-Feb-17 11:30N 38°51' W 076°26'4 8.8
2018-Feb-17 11:00N 38°46' W 076°27'91 8.7
2018-Feb-17 00:32N 37°16' W 076°09'1 8.8
2018-Feb-17 00:25N 37°15' W 076°09'4 8.6
2018-Feb-16 23:58N 37°11' W 076°10'5 8.7
2018-Feb-16 23:26N 37°06' W 076°09'4 8.5
2018-Feb-16 23:00N 37°03' W 076°08'4 7.5
2018-Feb-16 22:30N 36°60' W 076°11'5 9.3
2018-Feb-16 21:59N 37°00' W 076°17'4 7.6
2018-Feb-16 21:29N 36°57' W 076°20'3 6.9
2018-Feb-16 21:00N 36°54' W 076°20'3 6.7
2018-Feb-16 20:30N 36°51' W 076°18'3 6.3
2018-Feb-16 20:00N 36°48' W 076°18'2 4.9
2018-Feb-16 19:30N 36°46' W 076°18'1 1.9
2018-Feb-16 19:00N 36°45' W 076°18'0 0.0
2018-Feb-16 18:30N 36°45' W 076°18'0 0.0
2018-Feb-16 18:00N 36°45' W 076°18'0 0.0
2018-Feb-16 17:30N 36°45' W 076°18'0 0.0
2018-Feb-16 17:00N 36°45' W 076°18'0 0.2
2018-Feb-16 16:30N 36°45' W 076°18'0 0.2
2018-Feb-16 16:00N 36°45' W 076°18'2 4.2
2018-Feb-16 15:30N 36°47' W 076°18'2 3.2
2018-Feb-16 15:00N 36°48' W 076°17'3 5.8
2018-Feb-16 14:30N 36°51' W 076°18'3 6.6
2018-Feb-16 14:00N 36°54' W 076°20'3 6.6
2018-Feb-16 13:29N 36°57' W 076°20'2 2.9
2018-Feb-16 12:58N 36°59' W 076°20'0 0.2
2018-Feb-16 12:28N 36°59' W 076°20'0 0.3
2018-Feb-16 11:57N 36°59' W 076°20'0 0.2
2018-Feb-16 11:27N 36°59' W 076°20'0 0.9
2018-Feb-16 10:56N 36°59' W 076°20'3 5.4
2018-Feb-16 10:26N 37°00' W 076°17'3 5.1
2018-Feb-16 09:56N 37°00' W 076°14'2 4.9
2018-Feb-16 09:30N 36°60' W 076°11'2 4.2
2018-Feb-16 09:00N 37°01' W 076°09'2 3.1
2018-Feb-16 08:30N 37°02' W 076°08'2 3.8
2018-Feb-16 07:59N 37°04' W 076°08'3 5.7
2018-Feb-16 07:29N 37°07' W 076°09'3 5.4
2018-Feb-16 06:59N 37°10' W 076°09'3 5.1
2018-Feb-16 06:29N 37°12' W 076°10'2 4.7
2018-Feb-16 05:58N 37°15' W 076°09'90 4.1
2018-Feb-15 08:15N 38°43' W 076°27'1 4.9
2018-Feb-15 08:00N 38°44' W 076°27'3 4.9
2018-Feb-15 07:25N 38°47' W 076°27'2 4.9
2018-Feb-15 07:00N 38°49' W 076°26'2 4.9
2018-Feb-15 06:30N 38°52' W 076°25'3 5.1
2018-Feb-15 06:00N 38°54' W 076°25'3 5.2
2018-Feb-15 05:30N 38°57' W 076°24'3 5.6
2018-Feb-15 05:00N 38°59' W 076°23'3 5.7
2018-Feb-15 04:30N 39°02' W 076°21'3 5.8
2018-Feb-15 04:00N 39°04' W 076°19'3 5.4
2018-Feb-15 03:30N 39°07' W 076°18'3 5.3
2018-Feb-15 03:00N 39°09' W 076°19'3 6.1
2018-Feb-15 02:29N 39°12' W 076°16'8 5.5
2018-Feb-15 01:08N 39°19' W 076°13'1 5.2
2018-Feb-15 00:59N 39°20' W 076°12'3 5.3
2018-Feb-15 00:30N 39°21' W 076°10'3 6.2
2018-Feb-15 00:00N 39°23' W 076°06'3 6.2
2018-Feb-14 23:30N 39°24' W 076°03'3 6.2
2018-Feb-14 23:00N 39°26' W 076°00'3 6.0
2018-Feb-14 22:31N 39°29' W 075°57'3 6.0
2018-Feb-14 22:00N 39°30' W 075°54'3 5.9
2018-Feb-14 21:30N 39°32' W 075°51'3 6.0
2018-Feb-14 21:00N 39°32' W 075°47'3 6.8
2018-Feb-14 20:30N 39°33' W 075°43'4 7.0
2018-Feb-14 20:00N 39°33' W 075°38'4 7.3
2018-Feb-14 19:30N 39°34' W 075°34'4 7.8
2018-Feb-14 19:00N 39°37' W 075°35'4 8.3
2018-Feb-14 18:30N 39°41' W 075°31'4 7.8
2018-Feb-14 18:00N 39°44' W 075°30'3 6.7
2018-Feb-14 17:30N 39°47' W 075°27'0 0.9
2018-Feb-14 17:00N 39°47' W 075°27'0 0.1
2018-Feb-14 16:30N 39°47' W 075°27'0 0.0
2018-Feb-14 16:00N 39°47' W 075°27'0 0.0
2018-Feb-14 15:30N 39°47' W 075°27'0 0.0
2018-Feb-14 15:01N 39°47' W 075°27'0 0.0
2018-Feb-14 14:31N 39°47' W 075°27'0 0.0
2018-Feb-14 14:00N 39°47' W 075°27'0 0.0
2018-Feb-14 13:31N 39°47' W 075°27'0 0.0
2018-Feb-14 13:00N 39°47' W 075°27'0 0.0
2018-Feb-14 12:31N 39°47' W 075°27'0 0.2
2018-Feb-14 12:00N 39°47' W 075°27'0 0.0
2018-Feb-14 11:30N 39°47' W 075°27'0 0.0
2018-Feb-14 11:00N 39°47' W 075°27'0 0.0
2018-Feb-14 10:30N 39°47' W 075°27'0 0.0
2018-Feb-14 10:01N 39°47' W 075°27'0 0.0
2018-Feb-14 09:30N 39°47' W 075°27'0 0.0
2018-Feb-14 09:00N 39°47' W 075°27'0 0.0
2018-Feb-14 08:31N 39°47' W 075°27'0 0.0
2018-Feb-14 08:01N 39°47' W 075°27'0 0.0
2018-Feb-14 07:30N 39°47' W 075°27'0 0.0
2018-Feb-14 07:00N 39°47' W 075°27'0 0.0
2018-Feb-14 06:30N 39°47' W 075°27'0 0.0
2018-Feb-14 06:01N 39°47' W 075°27'0 0.0
2018-Feb-14 05:30N 39°47' W 075°27'0 0.0
2018-Feb-14 05:00N 39°47' W 075°27'0 0.0
2018-Feb-14 04:31N 39°47' W 075°27'0 0.0
2018-Feb-14 04:00N 39°47' W 075°27'0 0.3
2018-Feb-14 03:31N 39°47' W 075°27'0 0.1
2018-Feb-14 03:01N 39°47' W 075°27'0 0.0
2018-Feb-14 02:30N 39°47' W 075°27'0 0.0
2018-Feb-14 02:00N 39°47' W 075°27'0 0.0
2018-Feb-14 01:31N 39°47' W 075°27'0 0.0
2018-Feb-14 01:00N 39°47' W 075°27'0 0.0
2018-Feb-14 00:30N 39°47' W 075°27'0 0.1
2018-Feb-14 00:01N 39°47' W 075°27'0 0.1
2018-Feb-13 23:30N 39°47' W 075°27'0 0.1
2018-Feb-13 23:00N 39°47' W 075°27'0 0.0
2018-Feb-13 22:30N 39°47' W 075°27'0 0.8
2018-Feb-13 22:01N 39°47' W 075°27'0 0.3
2018-Feb-13 21:31N 39°47' W 075°27'2 3.8
2018-Feb-13 21:00N 39°48' W 075°26'3 5.3
2018-Feb-13 20:31N 39°49' W 075°23'2 4.1
2018-Feb-13 20:00N 39°48' W 075°25'2 3.9
2018-Feb-13 19:30N 39°47' W 075°27'0 0.0
2018-Feb-13 19:00N 39°47' W 075°27'0 0.0
2018-Feb-13 18:30N 39°47' W 075°27'0 0.0
2018-Feb-13 18:00N 39°47' W 075°27'0 0.0
2018-Feb-13 17:30N 39°47' W 075°27'0 0.2
2018-Feb-13 17:00N 39°47' W 075°27'0 0.1
2018-Feb-13 16:30N 39°47' W 075°27'0 0.0
2018-Feb-13 16:01N 39°47' W 075°27'0 0.0
2018-Feb-13 15:30N 39°47' W 075°27'0 0.0
2018-Feb-13 15:01N 39°47' W 075°27'0 0.0
2018-Feb-13 14:31N 39°47' W 075°27'0 0.5
2018-Feb-13 14:00N 39°47' W 075°27'0 0.1
2018-Feb-13 13:30N 39°47' W 075°27'0 0.0
2018-Feb-13 13:00N 39°47' W 075°27'0 0.0
2018-Feb-13 12:30N 39°47' W 075°27'0 0.2
2018-Feb-13 12:00N 39°47' W 075°27'0 0.1
2018-Feb-13 11:30N 39°47' W 075°27'0 0.0
2018-Feb-13 11:00N 39°47' W 075°27'0 0.0
2018-Feb-13 10:30N 39°47' W 075°27'1 1.1
2018-Feb-13 10:00N 39°47' W 075°28'2 3.5
2018-Feb-13 09:30N 39°45' W 075°29'3 6.0
2018-Feb-13 09:00N 39°43' W 075°31'3 5.9
2018-Feb-13 08:30N 39°40' W 075°32'3 5.8
2018-Feb-13 08:00N 39°38' W 075°35'3 5.8
2018-Feb-13 07:31N 39°35' W 075°33'3 5.8
2018-Feb-13 07:01N 39°32' W 075°33'3 5.5
2018-Feb-13 06:30N 39°29' W 075°34'3 5.6
2018-Feb-13 06:00N 39°27' W 075°33'3 6.0
2018-Feb-13 05:31N 39°24' W 075°30'3 6.6
2018-Feb-13 05:01N 39°22' W 075°27'3 6.5
2018-Feb-13 04:31N 39°19' W 075°25'3 6.8
2018-Feb-13 04:01N 39°17' W 075°22'4 7.3
2018-Feb-13 03:31N 39°14' W 075°18'4 7.3
2018-Feb-13 03:00N 39°11' W 075°16'4 7.4
2018-Feb-13 02:30N 39°08' W 075°14'4 7.3
2018-Feb-13 02:00N 39°05' W 075°11'4 7.3
2018-Feb-13 01:24N 39°01' W 075°09'3 6.2
2018-Feb-13 00:55N 38°58' W 075°10'1 1.3
2018-Feb-13 00:30N 38°57' W 075°09'2 4.6
2018-Feb-13 00:00N 38°60' W 075°09'2 4.7
2018-Feb-12 23:30N 39°02' W 075°10'2 4.8
2018-Feb-12 23:00N 39°04' W 075°11'2 4.5
2018-Feb-12 22:30N 39°06' W 075°12'2 4.4
2018-Feb-12 22:00N 39°08' W 075°14'2 4.8
2018-Feb-12 21:31N 39°10' W 075°16'3 5.2
2018-Feb-12 21:00N 39°12' W 075°17'3 6.1
2018-Feb-12 20:30N 39°15' W 075°19'3 6.5
2018-Feb-12 20:00N 39°17' W 075°22'4 7.3
2018-Feb-12 19:30N 39°20' W 075°25'4 7.7
2018-Feb-12 19:00N 39°23' W 075°29'4 7.7
2018-Feb-12 18:30N 39°26' W 075°32'4 7.0
2018-Feb-12 18:00N 39°29' W 075°34'4 7.5
2018-Feb-12 17:30N 39°33' W 075°33'3 7.0
2018-Feb-12 17:00N 39°36' W 075°34'3 5.7
2018-Feb-12 16:30N 39°39' W 075°34'3 5.9
2018-Feb-12 16:00N 39°41' W 075°31'3 5.3
2018-Feb-12 15:30N 39°44' W 075°30'2 4.7
2018-Feb-12 15:00N 39°46' W 075°29'2 4.3
2018-Feb-12 14:30N 39°47' W 075°27'1 2.8
2018-Feb-12 14:00N 39°48' W 075°26'1 2.4
2018-Feb-12 13:31N 39°47' W 075°27'0 0.1
2018-Feb-12 13:01N 39°47' W 075°27'0 0.0
2018-Feb-12 12:30N 39°47' W 075°27'0 0.0
2018-Feb-12 12:00N 39°47' W 075°27'0 0.1
2018-Feb-12 11:30N 39°47' W 075°27'0 0.1
2018-Feb-12 11:01N 39°47' W 075°27'0 0.1
2018-Feb-12 10:30N 39°47' W 075°27'0 0.1
2018-Feb-12 10:00N 39°47' W 075°27'0 0.0
2018-Feb-12 09:30N 39°47' W 075°27'0 0.0
2018-Feb-12 09:00N 39°47' W 075°27'0 0.0
2018-Feb-12 08:31N 39°47' W 075°27'0 0.0
2018-Feb-12 08:00N 39°47' W 075°27'0 0.0
2018-Feb-12 07:30N 39°47' W 075°27'0 0.0
2018-Feb-12 07:00N 39°47' W 075°27'0 0.0
2018-Feb-12 06:30N 39°47' W 075°27'0 0.0
2018-Feb-12 06:00N 39°47' W 075°27'0 0.0
2018-Feb-12 05:30N 39°47' W 075°27'0 0.0
2018-Feb-12 05:00N 39°47' W 075°27'0 0.1
2018-Feb-12 04:30N 39°47' W 075°27'0 0.2
2018-Feb-12 04:01N 39°47' W 075°27'0 0.0
2018-Feb-12 03:31N 39°47' W 075°27'0 0.0
2018-Feb-12 03:01N 39°47' W 075°27'0 0.0
2018-Feb-12 02:30N 39°47' W 075°27'0 0.0
2018-Feb-12 02:00N 39°47' W 075°27'0 0.0
2018-Feb-12 01:30N 39°47' W 075°27'0 0.0
2018-Feb-12 01:00N 39°47' W 075°27'0 0.0
2018-Feb-12 00:30N 39°47' W 075°27'0 0.0
2018-Feb-12 00:00N 39°47' W 075°27'0 0.0
2018-Feb-11 23:30N 39°47' W 075°27'0 0.0
2018-Feb-11 23:01N 39°47' W 075°27'0 0.1
2018-Feb-11 22:30N 39°47' W 075°27'0 0.2
2018-Feb-11 22:01N 39°47' W 075°27'0 0.0
2018-Feb-11 21:31N 39°47' W 075°27'0 0.0
2018-Feb-11 21:01N 39°47' W 075°27'0 0.0
2018-Feb-11 20:30N 39°47' W 075°27'0 0.0
2018-Feb-11 20:01N 39°47' W 075°27'0 0.0
2018-Feb-11 19:31N 39°47' W 075°27'0 0.0
2018-Feb-11 19:01N 39°47' W 075°27'0 0.0
2018-Feb-11 18:30N 39°47' W 075°27'0 0.0
2018-Feb-11 17:59N 39°47' W 075°27'0 0.0
2018-Feb-11 17:30N 39°47' W 075°27'0 0.0
2018-Feb-11 16:57N 39°47' W 075°27'0 0.0
2018-Feb-11 16:30N 39°47' W 075°27'0 0.0
2018-Feb-11 16:00N 39°47' W 075°27'0 0.1
2018-Feb-11 15:30N 39°47' W 075°27'0 0.1
2018-Feb-11 15:01N 39°47' W 075°27'0 0.0
2018-Feb-11 14:30N 39°47' W 075°27'0 0.0
2018-Feb-11 14:00N 39°47' W 075°27'0 0.0
2018-Feb-11 13:31N 39°47' W 075°27'0 0.0
2018-Feb-11 13:00N 39°47' W 075°27'0 0.0
2018-Feb-11 12:30N 39°47' W 075°27'0 0.0
2018-Feb-11 12:00N 39°47' W 075°27'0 0.0
2018-Feb-11 11:31N 39°47' W 075°27'0 0.0
2018-Feb-11 11:00N 39°47' W 075°27'0 0.0
2018-Feb-11 10:30N 39°47' W 075°27'0 0.0
2018-Feb-11 10:01N 39°47' W 075°27'0 0.2
2018-Feb-11 09:30N 39°47' W 075°27'0 0.1
2018-Feb-11 09:01N 39°47' W 075°27'0 0.0
2018-Feb-11 08:30N 39°47' W 075°27'0 0.0
2018-Feb-11 08:01N 39°47' W 075°27'0 0.0
2018-Feb-11 07:31N 39°47' W 075°27'0 0.0
2018-Feb-11 07:01N 39°47' W 075°27'0 0.0
2018-Feb-11 06:31N 39°47' W 075°27'0 0.0
2018-Feb-11 06:00N 39°47' W 075°27'0 0.0
2018-Feb-11 05:30N 39°47' W 075°27'0 0.0
2018-Feb-11 05:00N 39°47' W 075°27'0 0.0
2018-Feb-11 04:31N 39°47' W 075°27'0 0.0
2018-Feb-11 04:01N 39°47' W 075°27'0 0.2
2018-Feb-11 03:30N 39°47' W 075°27'0 0.1
2018-Feb-11 03:00N 39°47' W 075°27'0 0.0
2018-Feb-11 02:30N 39°47' W 075°27'0 0.0
2018-Feb-11 02:00N 39°47' W 075°27'0 0.0
2018-Feb-11 01:30N 39°47' W 075°27'0 0.0
2018-Feb-11 01:00N 39°47' W 075°27'0 0.0
2018-Feb-11 00:31N 39°47' W 075°27'0 0.0
2018-Feb-11 00:00N 39°47' W 075°27'0 0.0
2018-Feb-10 23:31N 39°47' W 075°27'0 0.0
2018-Feb-10 23:01N 39°47' W 075°27'0 0.0
2018-Feb-10 22:30N 39°47' W 075°27'0 0.2
2018-Feb-10 22:01N 39°47' W 075°27'0 0.1
2018-Feb-10 21:30N 39°47' W 075°27'0 0.0
2018-Feb-10 21:00N 39°47' W 075°27'0 0.0
2018-Feb-10 20:30N 39°47' W 075°27'0 0.0
2018-Feb-10 20:00N 39°47' W 075°27'0 0.0
2018-Feb-10 19:30N 39°47' W 075°27'0 0.0
2018-Feb-10 19:00N 39°47' W 075°27'0 0.0
2018-Feb-10 18:30N 39°47' W 075°27'0 0.0
2018-Feb-10 18:00N 39°47' W 075°27'0 0.0
2018-Feb-10 17:31N 39°47' W 075°27'0 0.0
2018-Feb-10 17:00N 39°47' W 075°27'0 0.0
2018-Feb-10 16:30N 39°47' W 075°27'0 0.0
2018-Feb-10 16:00N 39°47' W 075°27'0 0.0
2018-Feb-10 15:30N 39°47' W 075°27'0 0.1
2018-Feb-10 15:00N 39°47' W 075°27'0 0.2
2018-Feb-10 14:30N 39°47' W 075°27'0 0.1
2018-Feb-10 14:00N 39°47' W 075°27'0 0.0
2018-Feb-10 13:30N 39°47' W 075°27'0 0.0
2018-Feb-10 13:01N 39°47' W 075°27'0 0.0
2018-Feb-10 12:30N 39°47' W 075°27'0 0.0
2018-Feb-10 12:00N 39°47' W 075°27'0 0.0
2018-Feb-10 11:30N 39°47' W 075°27'0 0.0
2018-Feb-10 11:00N 39°47' W 075°27'0 0.0
2018-Feb-10 10:30N 39°47' W 075°27'0 0.0
2018-Feb-10 10:01N 39°47' W 075°27'0 0.0
2018-Feb-10 09:31N 39°47' W 075°27'0 0.2
2018-Feb-10 09:01N 39°47' W 075°27'0 0.1
2018-Feb-10 08:31N 39°47' W 075°27'0 0.0
2018-Feb-10 08:01N 39°47' W 075°27'0 0.0
2018-Feb-10 07:30N 39°47' W 075°27'0 0.0
2018-Feb-10 07:00N 39°47' W 075°27'0 0.0
2018-Feb-10 06:31N 39°47' W 075°27'0 0.0
2018-Feb-10 06:00N 39°47' W 075°27'0 0.0
2018-Feb-10 05:31N 39°47' W 075°27'0 0.0
2018-Feb-10 05:00N 39°47' W 075°27'0 0.0
2018-Feb-10 04:30N 39°47' W 075°27'0 0.0
2018-Feb-10 04:00N 39°47' W 075°27'0 0.0
2018-Feb-10 03:30N 39°47' W 075°27'0 0.0
2018-Feb-10 03:01N 39°47' W 075°27'0 0.2
2018-Feb-10 02:30N 39°47' W 075°27'0 0.1
2018-Feb-10 02:00N 39°47' W 075°27'0 0.1
2018-Feb-10 01:30N 39°47' W 075°27'0 0.0
2018-Feb-10 01:00N 39°47' W 075°27'0 0.0
2018-Feb-10 00:30N 39°47' W 075°27'0 0.0
2018-Feb-10 00:00N 39°47' W 075°27'0 0.0
2018-Feb-09 23:30N 39°47' W 075°27'  
Track history (hours):
 
Tides and Currents Weather Stations Pressure Air Temp Water Temp Dewpoint Dewpoint Depression Visibility Wind Speed Wind Dir Waves Ship Positions

Elizabeth Ann

Owner: ATLANTIC GULF TOWING LLC, Chesapeake, VA. More information available from US FCC via Universal Licensing System and Coast Guard Vessel Documentation Center.

Last reported at 2018-Feb-19 23:30 UTC. Time now 2018-Feb-19 23:40 UTC.
Position N 39°50' W 075°23'.

Length 32 m; draft 4 m.

Type: Tug. MMSI: 366773150.

Date/timePositionNaut miles runAvg speedWind from/ knotsBaromVisibWave heightAir tempDewpointWater temp
2018-Feb-19 23:30N 39°50' W 075°23'1 1.7
2018-Feb-19 23:00N 39°49' W 075°24'1 1.7
2018-Feb-19 22:30N 39°50' W 075°23'0 0.0
2018-Feb-19 22:01N 39°50' W 075°23'0 0.0
2018-Feb-19 21:31N 39°50' W 075°23'3 5.2
2018-Feb-19 21:00N 39°48' W 075°26'510.0
2018-Feb-19 20:30N 39°44' W 075°30'510.4
2018-Feb-19 20:00N 39°39' W 075°33'5 9.1
2018-Feb-19 19:30N 39°35' W 075°33'4 7.7
2018-Feb-19 19:00N 39°31' W 075°33'4 7.7
2018-Feb-19 18:30N 39°27' W 075°33'1 2.9
2018-Feb-19 18:00N 39°26' W 075°32'2 3.1
2018-Feb-19 17:31N 39°27' W 075°33'1 2.5
2018-Feb-19 17:00N 39°28' W 075°34'1 1.9
2018-Feb-19 16:30N 39°29' W 075°34'2 3.3
2018-Feb-19 16:00N 39°31' W 075°33'2 3.9
2018-Feb-19 15:31N 39°33' W 075°33'2 3.6
2018-Feb-19 15:01N 39°34' W 075°33'2 4.1
2018-Feb-19 14:30N 39°36' W 075°34'2 4.0
2018-Feb-19 14:01N 39°38' W 075°34'2 4.8
2018-Feb-19 13:31N 39°40' W 075°32'2 4.9
2018-Feb-19 13:01N 39°42' W 075°31'2 4.9
2018-Feb-19 12:31N 39°45' W 075°30'2 4.5
2018-Feb-19 12:01N 39°46' W 075°28'1 2.3
2018-Feb-19 11:30N 39°47' W 075°27'0 0.0
2018-Feb-19 11:00N 39°47' W 075°27'0 0.0
2018-Feb-19 10:31N 39°47' W 075°27'0 0.0
2018-Feb-19 10:01N 39°47' W 075°27'0 0.0
2018-Feb-19 09:30N 39°47' W 075°27'0 0.0
2018-Feb-19 09:00N 39°47' W 075°27'1 2.3
2018-Feb-19 08:30N 39°48' W 075°26'2 4.8
2018-Feb-19 08:00N 39°49' W 075°23'0 0.8
2018-Feb-19 07:30N 39°49' W 075°23'2 3.4
2018-Feb-19 07:00N 39°48' W 075°25'2 4.4
2018-Feb-19 06:31N 39°47' W 075°27'0 0.0
2018-Feb-19 06:00N 39°47' W 075°27'0 0.0
2018-Feb-19 05:30N 39°47' W 075°27'0 0.0
2018-Feb-19 05:00N 39°47' W 075°27'0 0.0
2018-Feb-19 04:30N 39°47' W 075°27'0 0.0
2018-Feb-19 04:01N 39°47' W 075°27'0 0.0
2018-Feb-19 03:30N 39°47' W 075°27'0 0.0
2018-Feb-19 03:00N 39°47' W 075°27'0 0.0
2018-Feb-19 02:30N 39°47' W 075°27'0 0.0
2018-Feb-19 02:00N 39°47' W 075°27'0 0.0
2018-Feb-19 01:30N 39°47' W 075°27'0 0.0
2018-Feb-19 01:00N 39°47' W 075°27'0 0.0
2018-Feb-19 00:31N 39°47' W 075°27'0 0.0
2018-Feb-19 00:00N 39°47' W 075°27'0 0.0
2018-Feb-18 23:30N 39°47' W 075°27'0 0.0
2018-Feb-18 23:00N 39°47' W 075°27'0 0.0
2018-Feb-18 22:30N 39°47' W 075°27'0 0.0
2018-Feb-18 22:00N 39°47' W 075°27'0 0.0
2018-Feb-18 21:30N 39°47' W 075°27'0 0.0
2018-Feb-18 21:00N 39°47' W 075°27'0 0.0
2018-Feb-18 20:30N 39°47' W 075°27'0 0.0
2018-Feb-18 20:00N 39°47' W 075°27'0 0.0
2018-Feb-18 19:30N 39°47' W 075°27'0 0.0
2018-Feb-18 19:00N 39°47' W 075°27'0 0.0
2018-Feb-18 18:30N 39°47' W 075°27'0 0.0
2018-Feb-18 18:00N 39°47' W 075°27'0 0.0
2018-Feb-18 17:30N 39°47' W 075°27'0 0.0
2018-Feb-18 17:01N 39°47' W 075°27'0 0.0
2018-Feb-18 16:31N 39°47' W 075°27'0 0.0
2018-Feb-18 16:00N 39°47' W 075°27'0 0.0
2018-Feb-18 15:30N 39°47' W 075°27'0 0.0
2018-Feb-18 15:01N 39°47' W 075°27'0 0.5
2018-Feb-18 14:30N 39°47' W 075°26'4 7.1
2018-Feb-18 14:00N 39°50' W 075°23'3 5.5
2018-Feb-18 13:30N 39°48' W 075°26'1 2.2
2018-Feb-18 13:01N 39°47' W 075°27'0 0.0
2018-Feb-18 12:30N 39°47' W 075°27'0 0.0
2018-Feb-18 12:00N 39°47' W 075°27'0 0.0
2018-Feb-18 11:30N 39°47' W 075°27'0 0.0
2018-Feb-18 11:00N 39°47' W 075°27'0 0.0
2018-Feb-18 10:31N 39°47' W 075°27'0 0.0
2018-Feb-18 10:01N 39°47' W 075°27'0 0.0
2018-Feb-18 09:31N 39°47' W 075°27'0 0.0
2018-Feb-18 09:01N 39°47' W 075°27'0 0.0
2018-Feb-18 08:31N 39°47' W 075°27'0 0.0
2018-Feb-18 08:00N 39°47' W 075°27'0 0.0
2018-Feb-18 07:30N 39°47' W 075°27'0 0.0
2018-Feb-18 07:01N 39°47' W 075°27'0 0.0
2018-Feb-18 06:30N 39°47' W 075°27'0 0.0
2018-Feb-18 06:01N 39°47' W 075°27'0 0.0
2018-Feb-18 05:30N 39°47' W 075°27'0 0.0
2018-Feb-18 05:00N 39°47' W 075°27'0 0.0
2018-Feb-18 04:30N 39°47' W 075°27'0 0.0
2018-Feb-18 04:00N 39°47' W 075°27'0 0.0
2018-Feb-18 03:30N 39°47' W 075°27'0 0.0
2018-Feb-18 03:01N 39°47' W 075°27'0 0.0
2018-Feb-18 02:30N 39°47' W 075°27'0 0.0
2018-Feb-18 02:00N 39°47' W 075°27'0 0.0
2018-Feb-18 01:30N 39°47' W 075°27'0 0.0
2018-Feb-18 01:00N 39°47' W 075°27'0 0.0
2018-Feb-18 00:30N 39°47' W 075°27'0 0.0
2018-Feb-18 00:00N 39°47' W 075°27'0 0.0
2018-Feb-17 23:30N 39°47' W 075°27'0 0.0
2018-Feb-17 23:00N 39°47' W 075°27'0 0.0
2018-Feb-17 22:30N 39°47' W 075°27'1 1.7
2018-Feb-17 22:00N 39°47' W 075°28'3 6.6
2018-Feb-17 21:30N 39°44' W 075°30'3 6.7
2018-Feb-17 21:00N 39°41' W 075°31'3 7.0
2018-Feb-17 20:30N 39°38' W 075°34'3 6.4
2018-Feb-17 20:00N 39°35' W 075°33'2 4.9
2018-Feb-17 19:30N 39°33' W 075°36'3 6.1
2018-Feb-17 19:00N 39°33' W 075°40'3 5.9
2018-Feb-17 18:30N 39°33' W 075°44'3 5.9
2018-Feb-17 18:00N 39°32' W 075°47'3 5.9
2018-Feb-17 17:31N 39°32' W 075°51'4 7.3
2018-Feb-17 17:00N 39°30' W 075°55'4 8.5
2018-Feb-17 16:30N 39°27' W 075°59'4 8.9
2018-Feb-17 16:00N 39°24' W 076°03'5 9.1
2018-Feb-17 15:30N 39°22' W 076°08'17 8.4
2018-Feb-17 13:29N 39°07' W 076°18'4 8.6
2018-Feb-17 12:59N 39°03' W 076°21'4 8.9
2018-Feb-17 12:30N 38°59' W 076°23'4 8.6
2018-Feb-17 12:00N 38°55' W 076°25'4 8.7
2018-Feb-17 11:30N 38°51' W 076°26'4 8.8
2018-Feb-17 11:00N 38°46' W 076°27'91 8.7
2018-Feb-17 00:32N 37°16' W 076°09'1 8.8
2018-Feb-17 00:25N 37°15' W 076°09'4 8.6
2018-Feb-16 23:58N 37°11' W 076°10'5 8.7
2018-Feb-16 23:26N 37°06' W 076°09'4 8.5
2018-Feb-16 23:00N 37°03' W 076°08'4 7.5
2018-Feb-16 22:30N 36°60' W 076°11'5 9.3
2018-Feb-16 21:59N 37°00' W 076°17'4 7.6
2018-Feb-16 21:29N 36°57' W 076°20'3 6.9
2018-Feb-16 21:00N 36°54' W 076°20'3 6.7
2018-Feb-16 20:30N 36°51' W 076°18'3 6.3
2018-Feb-16 20:00N 36°48' W 076°18'2 4.9
2018-Feb-16 19:30N 36°46' W 076°18'1 1.9
2018-Feb-16 19:00N 36°45' W 076°18'0 0.0
2018-Feb-16 18:30N 36°45' W 076°18'0 0.0
2018-Feb-16 18:00N 36°45' W 076°18'0 0.0
2018-Feb-16 17:30N 36°45' W 076°18'0 0.0
2018-Feb-16 17:00N 36°45' W 076°18'0 0.2
2018-Feb-16 16:30N 36°45' W 076°18'0 0.2
2018-Feb-16 16:00N 36°45' W 076°18'2 4.2
2018-Feb-16 15:30N 36°47' W 076°18'2 3.2
2018-Feb-16 15:00N 36°48' W 076°17'3 5.8
2018-Feb-16 14:30N 36°51' W 076°18'3 6.6
2018-Feb-16 14:00N 36°54' W 076°20'3 6.6
2018-Feb-16 13:29N 36°57' W 076°20'2 2.9
2018-Feb-16 12:58N 36°59' W 076°20'0 0.2
2018-Feb-16 12:28N 36°59' W 076°20'0 0.3
2018-Feb-16 11:57N 36°59' W 076°20'0 0.2
2018-Feb-16 11:27N 36°59' W 076°20'0 0.9
2018-Feb-16 10:56N 36°59' W 076°20'3 5.4
2018-Feb-16 10:26N 37°00' W 076°17'3 5.1
2018-Feb-16 09:56N 37°00' W 076°14'2 4.9
2018-Feb-16 09:30N 36°60' W 076°11'2 4.2
2018-Feb-16 09:00N 37°01' W 076°09'2 3.1
2018-Feb-16 08:30N 37°02' W 076°08'2 3.8
2018-Feb-16 07:59N 37°04' W 076°08'3 5.7
2018-Feb-16 07:29N 37°07' W 076°09'3 5.4
2018-Feb-16 06:59N 37°10' W 076°09'3 5.1
2018-Feb-16 06:29N 37°12' W 076°10'2 4.7
2018-Feb-16 05:58N 37°15' W 076°09'90 4.1
2018-Feb-15 08:15N 38°43' W 076°27'1 4.9
2018-Feb-15 08:00N 38°44' W 076°27'3 4.9
2018-Feb-15 07:25N 38°47' W 076°27'2 4.9
2018-Feb-15 07:00N 38°49' W 076°26'2 4.9
2018-Feb-15 06:30N 38°52' W 076°25'3 5.1
2018-Feb-15 06:00N 38°54' W 076°25'3 5.2
2018-Feb-15 05:30N 38°57' W 076°24'3 5.6
2018-Feb-15 05:00N 38°59' W 076°23'3 5.7
2018-Feb-15 04:30N 39°02' W 076°21'3 5.8
2018-Feb-15 04:00N 39°04' W 076°19'3 5.4
2018-Feb-15 03:30N 39°07' W 076°18'3 5.3
2018-Feb-15 03:00N 39°09' W 076°19'3 6.1
2018-Feb-15 02:29N 39°12' W 076°16'8 5.5
2018-Feb-15 01:08N 39°19' W 076°13'1 5.2
2018-Feb-15 00:59N 39°20' W 076°12'3 5.3
2018-Feb-15 00:30N 39°21' W 076°10'3 6.2
2018-Feb-15 00:00N 39°23' W 076°06'3 6.2
2018-Feb-14 23:30N 39°24' W 076°03'3 6.2
2018-Feb-14 23:00N 39°26' W 076°00'3 6.0
2018-Feb-14 22:31N 39°29' W 075°57'3 6.0
2018-Feb-14 22:00N 39°30' W 075°54'3 5.9
2018-Feb-14 21:30N 39°32' W 075°51'3 6.0
2018-Feb-14 21:00N 39°32' W 075°47'3 6.8
2018-Feb-14 20:30N 39°33' W 075°43'4 7.0
2018-Feb-14 20:00N 39°33' W 075°38'4 7.3
2018-Feb-14 19:30N 39°34' W 075°34'4 7.8
2018-Feb-14 19:00N 39°37' W 075°35'4 8.3
2018-Feb-14 18:30N 39°41' W 075°31'4 7.8
2018-Feb-14 18:00N 39°44' W 075°30'3 6.7
2018-Feb-14 17:30N 39°47' W 075°27'0 0.9
2018-Feb-14 17:00N 39°47' W 075°27'0 0.1
2018-Feb-14 16:30N 39°47' W 075°27'0 0.0
2018-Feb-14 16:00N 39°47' W 075°27'0 0.0
2018-Feb-14 15:30N 39°47' W 075°27'0 0.0
2018-Feb-14 15:01N 39°47' W 075°27'0 0.0
2018-Feb-14 14:31N 39°47' W 075°27'0 0.0
2018-Feb-14 14:00N 39°47' W 075°27'0 0.0
2018-Feb-14 13:31N 39°47' W 075°27'0 0.0
2018-Feb-14 13:00N 39°47' W 075°27'0 0.0
2018-Feb-14 12:31N 39°47' W 075°27'0 0.2
2018-Feb-14 12:00N 39°47' W 075°27'0 0.0
2018-Feb-14 11:30N 39°47' W 075°27'0 0.0
2018-Feb-14 11:00N 39°47' W 075°27'0 0.0
2018-Feb-14 10:30N 39°47' W 075°27'0 0.0
2018-Feb-14 10:01N 39°47' W 075°27'0 0.0
2018-Feb-14 09:30N 39°47' W 075°27'0 0.0
2018-Feb-14 09:00N 39°47' W 075°27'0 0.0
2018-Feb-14 08:31N 39°47' W 075°27'0 0.0
2018-Feb-14 08:01N 39°47' W 075°27'0 0.0
2018-Feb-14 07:30N 39°47' W 075°27'0 0.0
2018-Feb-14 07:00N 39°47' W 075°27'0 0.0
2018-Feb-14 06:30N 39°47' W 075°27'0 0.0
2018-Feb-14 06:01N 39°47' W 075°27'0 0.0
2018-Feb-14 05:30N 39°47' W 075°27'0 0.0
2018-Feb-14 05:00N 39°47' W 075°27'0 0.0
2018-Feb-14 04:31N 39°47' W 075°27'0 0.0
2018-Feb-14 04:00N 39°47' W 075°27'0 0.3
2018-Feb-14 03:31N 39°47' W 075°27'0 0.1
2018-Feb-14 03:01N 39°47' W 075°27'0 0.0
2018-Feb-14 02:30N 39°47' W 075°27'0 0.0
2018-Feb-14 02:00N 39°47' W 075°27'0 0.0
2018-Feb-14 01:31N 39°47' W 075°27'0 0.0
2018-Feb-14 01:00N 39°47' W 075°27'0 0.0
2018-Feb-14 00:30N 39°47' W 075°27'0 0.1
2018-Feb-14 00:01N 39°47' W 075°27'0 0.1
2018-Feb-13 23:30N 39°47' W 075°27'0 0.1
2018-Feb-13 23:00N 39°47' W 075°27'0 0.0
2018-Feb-13 22:30N 39°47' W 075°27'0 0.8
2018-Feb-13 22:01N 39°47' W 075°27'0 0.3
2018-Feb-13 21:31N 39°47' W 075°27'2 3.8
2018-Feb-13 21:00N 39°48' W 075°26'3 5.3
2018-Feb-13 20:31N 39°49' W 075°23'2 4.1
2018-Feb-13 20:00N 39°48' W 075°25'2 3.9
2018-Feb-13 19:30N 39°47' W 075°27'0 0.0
2018-Feb-13 19:00N 39°47' W 075°27'0 0.0
2018-Feb-13 18:30N 39°47' W 075°27'0 0.0
2018-Feb-13 18:00N 39°47' W 075°27'0 0.0
2018-Feb-13 17:30N 39°47' W 075°27'0 0.2
2018-Feb-13 17:00N 39°47' W 075°27'0 0.1
2018-Feb-13 16:30N 39°47' W 075°27'0 0.0
2018-Feb-13 16:01N 39°47' W 075°27'0 0.0
2018-Feb-13 15:30N 39°47' W 075°27'0 0.0
2018-Feb-13 15:01N 39°47' W 075°27'0 0.0
2018-Feb-13 14:31N 39°47' W 075°27'0 0.5
2018-Feb-13 14:00N 39°47' W 075°27'0 0.1
2018-Feb-13 13:30N 39°47' W 075°27'0 0.0
2018-Feb-13 13:00N 39°47' W 075°27'0 0.0
2018-Feb-13 12:30N 39°47' W 075°27'0 0.2
2018-Feb-13 12:00N 39°47' W 075°27'0 0.1
2018-Feb-13 11:30N 39°47' W 075°27'0 0.0
2018-Feb-13 11:00N 39°47' W 075°27'0 0.0
2018-Feb-13 10:30N 39°47' W 075°27'1 1.1
2018-Feb-13 10:00N 39°47' W 075°28'2 3.5
2018-Feb-13 09:30N 39°45' W 075°29'3 6.0
2018-Feb-13 09:00N 39°43' W 075°31'3 5.9
2018-Feb-13 08:30N 39°40' W 075°32'3 5.8
2018-Feb-13 08:00N 39°38' W 075°35'3 5.8
2018-Feb-13 07:31N 39°35' W 075°33'3 5.8
2018-Feb-13 07:01N 39°32' W 075°33'3 5.5
2018-Feb-13 06:30N 39°29' W 075°34'3 5.6
2018-Feb-13 06:00N 39°27' W 075°33'3 6.0
2018-Feb-13 05:31N 39°24' W 075°30'3 6.6
2018-Feb-13 05:01N 39°22' W 075°27'3 6.5
2018-Feb-13 04:31N 39°19' W 075°25'3 6.8
2018-Feb-13 04:01N 39°17' W 075°22'4 7.3
2018-Feb-13 03:31N 39°14' W 075°18'4 7.3
2018-Feb-13 03:00N 39°11' W 075°16'4 7.4
2018-Feb-13 02:30N 39°08' W 075°14'4 7.3
2018-Feb-13 02:00N 39°05' W 075°11'4 7.3
2018-Feb-13 01:24N 39°01' W 075°09'3 6.2
2018-Feb-13 00:55N 38°58' W 075°10'1 1.3
2018-Feb-13 00:30N 38°57' W 075°09'2 4.6
2018-Feb-13 00:00N 38°60' W 075°09'2 4.7
2018-Feb-12 23:30N 39°02' W 075°10'2 4.8
2018-Feb-12 23:00N 39°04' W 075°11'2 4.5
2018-Feb-12 22:30N 39°06' W 075°12'2 4.4
2018-Feb-12 22:00N 39°08' W 075°14'2 4.8
2018-Feb-12 21:31N 39°10' W 075°16'3 5.2
2018-Feb-12 21:00N 39°12' W 075°17'3 6.1
2018-Feb-12 20:30N 39°15' W 075°19'3 6.5
2018-Feb-12 20:00N 39°17' W 075°22'4 7.3
2018-Feb-12 19:30N 39°20' W 075°25'4 7.7
2018-Feb-12 19:00N 39°23' W 075°29'4 7.7
2018-Feb-12 18:30N 39°26' W 075°32'4 7.0
2018-Feb-12 18:00N 39°29' W 075°34'4 7.5
2018-Feb-12 17:30N 39°33' W 075°33'3 7.0
2018-Feb-12 17:00N 39°36' W 075°34'3 5.7
2018-Feb-12 16:30N 39°39' W 075°34'3 5.9
2018-Feb-12 16:00N 39°41' W 075°31'3 5.3
2018-Feb-12 15:30N 39°44' W 075°30'2 4.7
2018-Feb-12 15:00N 39°46' W 075°29'2 4.3
2018-Feb-12 14:30N 39°47' W 075°27'1 2.8
2018-Feb-12 14:00N 39°48' W 075°26'1 2.4
2018-Feb-12 13:31N 39°47' W 075°27'0 0.1
2018-Feb-12 13:01N 39°47' W 075°27'0 0.0
2018-Feb-12 12:30N 39°47' W 075°27'0 0.0
2018-Feb-12 12:00N 39°47' W 075°27'0 0.1
2018-Feb-12 11:30N 39°47' W 075°27'0 0.1
2018-Feb-12 11:01N 39°47' W 075°27'0 0.1
2018-Feb-12 10:30N 39°47' W 075°27'0 0.1
2018-Feb-12 10:00N 39°47' W 075°27'0 0.0
2018-Feb-12 09:30N 39°47' W 075°27'0 0.0
2018-Feb-12 09:00N 39°47' W 075°27'0 0.0
2018-Feb-12 08:31N 39°47' W 075°27'0 0.0
2018-Feb-12 08:00N 39°47' W 075°27'0 0.0
2018-Feb-12 07:30N 39°47' W 075°27'0 0.0
2018-Feb-12 07:00N 39°47' W 075°27'0 0.0
2018-Feb-12 06:30N 39°47' W 075°27'0 0.0
2018-Feb-12 06:00N 39°47' W 075°27'0 0.0
2018-Feb-12 05:30N 39°47' W 075°27'0 0.0
2018-Feb-12 05:00N 39°47' W 075°27'0 0.1
2018-Feb-12 04:30N 39°47' W 075°27'0 0.2
2018-Feb-12 04:01N 39°47' W 075°27'0 0.0
2018-Feb-12 03:31N 39°47' W 075°27'0 0.0
2018-Feb-12 03:01N 39°47' W 075°27'0 0.0
2018-Feb-12 02:30N 39°47' W 075°27'0 0.0
2018-Feb-12 02:00N 39°47' W 075°27'0 0.0
2018-Feb-12 01:30N 39°47' W 075°27'0 0.0
2018-Feb-12 01:00N 39°47' W 075°27'0 0.0
2018-Feb-12 00:30N 39°47' W 075°27'0 0.0
2018-Feb-12 00:00N 39°47' W 075°27'0 0.0
2018-Feb-11 23:30N 39°47' W 075°27'0 0.0
2018-Feb-11 23:01N 39°47' W 075°27'0 0.1
2018-Feb-11 22:30N 39°47' W 075°27'0 0.2
2018-Feb-11 22:01N 39°47' W 075°27'0 0.0
2018-Feb-11 21:31N 39°47' W 075°27'0 0.0
2018-Feb-11 21:01N 39°47' W 075°27'0 0.0
2018-Feb-11 20:30N 39°47' W 075°27'0 0.0
2018-Feb-11 20:01N 39°47' W 075°27'0 0.0
2018-Feb-11 19:31N 39°47' W 075°27'0 0.0
2018-Feb-11 19:01N 39°47' W 075°27'0 0.0
2018-Feb-11 18:30N 39°47' W 075°27'0 0.0
2018-Feb-11 17:59N 39°47' W 075°27'0 0.0
2018-Feb-11 17:30N 39°47' W 075°27'0 0.0
2018-Feb-11 16:57N 39°47' W 075°27'0 0.0
2018-Feb-11 16:30N 39°47' W 075°27'0 0.0
2018-Feb-11 16:00N 39°47' W 075°27'0 0.1
2018-Feb-11 15:30N 39°47' W 075°27'0 0.1
2018-Feb-11 15:01N 39°47' W 075°27'0 0.0
2018-Feb-11 14:30N 39°47' W 075°27'0 0.0
2018-Feb-11 14:00N 39°47' W 075°27'0 0.0
2018-Feb-11 13:31N 39°47' W 075°27'0 0.0
2018-Feb-11 13:00N 39°47' W 075°27'0 0.0
2018-Feb-11 12:30N 39°47' W 075°27'0 0.0
2018-Feb-11 12:00N 39°47' W 075°27'0 0.0
2018-Feb-11 11:31N 39°47' W 075°27'0 0.0
2018-Feb-11 11:00N 39°47' W 075°27'0 0.0
2018-Feb-11 10:30N 39°47' W 075°27'0 0.0
2018-Feb-11 10:01N 39°47' W 075°27'0 0.2
2018-Feb-11 09:30N 39°47' W 075°27'0 0.1
2018-Feb-11 09:01N 39°47' W 075°27'0 0.0
2018-Feb-11 08:30N 39°47' W 075°27'0 0.0
2018-Feb-11 08:01N 39°47' W 075°27'0 0.0
2018-Feb-11 07:31N 39°47' W 075°27'0 0.0
2018-Feb-11 07:01N 39°47' W 075°27'0 0.0
2018-Feb-11 06:31N 39°47' W 075°27'0 0.0
2018-Feb-11 06:00N 39°47' W 075°27'0 0.0
2018-Feb-11 05:30N 39°47' W 075°27'0 0.0
2018-Feb-11 05:00N 39°47' W 075°27'0 0.0
2018-Feb-11 04:31N 39°47' W 075°27'0 0.0
2018-Feb-11 04:01N 39°47' W 075°27'0 0.2
2018-Feb-11 03:30N 39°47' W 075°27'0 0.1
2018-Feb-11 03:00N 39°47' W 075°27'0 0.0
2018-Feb-11 02:30N 39°47' W 075°27'0 0.0
2018-Feb-11 02:00N 39°47' W 075°27'0 0.0
2018-Feb-11 01:30N 39°47' W 075°27'0 0.0
2018-Feb-11 01:00N 39°47' W 075°27'0 0.0
2018-Feb-11 00:31N 39°47' W 075°27'0 0.0
2018-Feb-11 00:00N 39°47' W 075°27'0 0.0
2018-Feb-10 23:31N 39°47' W 075°27'0 0.0
2018-Feb-10 23:01N 39°47' W 075°27'0 0.0
2018-Feb-10 22:30N 39°47' W 075°27'0 0.2
2018-Feb-10 22:01N 39°47' W 075°27'0 0.1
2018-Feb-10 21:30N 39°47' W 075°27'0 0.0
2018-Feb-10 21:00N 39°47' W 075°27'0 0.0
2018-Feb-10 20:30N 39°47' W 075°27'0 0.0
2018-Feb-10 20:00N 39°47' W 075°27'0 0.0
2018-Feb-10 19:30N 39°47' W 075°27'0 0.0
2018-Feb-10 19:00N 39°47' W 075°27'0 0.0
2018-Feb-10 18:30N 39°47' W 075°27'0 0.0
2018-Feb-10 18:00N 39°47' W 075°27'0 0.0
2018-Feb-10 17:31N 39°47' W 075°27'0 0.0
2018-Feb-10 17:00N 39°47' W 075°27'0 0.0
2018-Feb-10 16:30N 39°47' W 075°27'0 0.0
2018-Feb-10 16:00N 39°47' W 075°27'0 0.0
2018-Feb-10 15:30N 39°47' W 075°27'0 0.1
2018-Feb-10 15:00N 39°47' W 075°27'0 0.2
2018-Feb-10 14:30N 39°47' W 075°27'0 0.1
2018-Feb-10 14:00N 39°47' W 075°27'0 0.0
2018-Feb-10 13:30N 39°47' W 075°27'0 0.0
2018-Feb-10 13:01N 39°47' W 075°27'0 0.0
2018-Feb-10 12:30N 39°47' W 075°27'0 0.0
2018-Feb-10 12:00N 39°47' W 075°27'0 0.0
2018-Feb-10 11:30N 39°47' W 075°27'0 0.0
2018-Feb-10 11:00N 39°47' W 075°27'0 0.0
2018-Feb-10 10:30N 39°47' W 075°27'0 0.0
2018-Feb-10 10:01N 39°47' W 075°27'0 0.0
2018-Feb-10 09:31N 39°47' W 075°27'0 0.2
2018-Feb-10 09:01N 39°47' W 075°27'0 0.1
2018-Feb-10 08:31N 39°47' W 075°27'0 0.0
2018-Feb-10 08:01N 39°47' W 075°27'0 0.0
2018-Feb-10 07:30N 39°47' W 075°27'0 0.0
2018-Feb-10 07:00N 39°47' W 075°27'0 0.0
2018-Feb-10 06:31N 39°47' W 075°27'0 0.0
2018-Feb-10 06:00N 39°47' W 075°27'0 0.0
2018-Feb-10 05:31N 39°47' W 075°27'0 0.0
2018-Feb-10 05:00N 39°47' W 075°27'0 0.0
2018-Feb-10 04:30N 39°47' W 075°27'0 0.0
2018-Feb-10 04:00N 39°47' W 075°27'0 0.0
2018-Feb-10 03:30N 39°47' W 075°27'0 0.0
2018-Feb-10 03:01N 39°47' W 075°27'0 0.2
2018-Feb-10 02:30N 39°47' W 075°27'0 0.1
2018-Feb-10 02:00N 39°47' W 075°27'0 0.1
2018-Feb-10 01:30N 39°47' W 075°27'0 0.0
2018-Feb-10 01:00N 39°47' W 075°27'0 0.0
2018-Feb-10 00:30N 39°47' W 075°27'0 0.0
2018-Feb-10 00:00N 39°47' W 075°27'0 0.0
2018-Feb-09 23:30N 39°47' W 075°27'  

Dump ship's entire track history